Poptun, Guatemala
Current Conditions -  °F | °C
As of 12:00 AM on Thursday 23 Oct 2014 (Local Time) from MGMM Reporting Station
Light Rain Light Rain  
Wind Chill: 73°   Ceiling: 1400
Heat Index: 73°   Visibility: 6mi
Dew Point: 73°   Wind: 0mph
Humidity: 100%   Direction: NA
Pressure: 29.85"   Gusts: NA
Location:  16.33°N, 89.42°W
Report Text: MGMM 230600Z 00000KT 9999 -RA BKN014 OVC090 23/23 Q1011 A2985
Loading
Personal Weather Stations






























Interactive Weather Map
Tropical Storm Tracking
New forecast layout! Learn more

10-Day Weather Forecast

Advertisements
Track Severe Weather on mobile